Time;durP1;ratioP1;P1;durP2;ratioP2;P2;SDS_P1;SDS_P2;PMS_P1;PMS_P2;Temp;Humidity;BMP_temperature;BMP_pressure;BME280_temperature;BME280_humidity;BME280_pressure;Samples;Min_cycle;Max_cycle;Signal;HPM_P1;HPM_P2
2023/04/15 00:00:45;;;;;;;;;;;;;;;5.45;nan;99595.34;5041438;28;19913;-82
2023/04/15 00:03:11;;;;;;;;;;;;;;;5.40;nan;99594.94;5035269;28;19917;-83
2023/04/15 00:05:36;;;;;;;;;;;;;;;5.36;nan;99593.56;5027060;28;19970;-82
2023/04/15 00:08:01;;;;;;;;;;;;;;;5.35;nan;99600.59;5032515;28;20341;-82
2023/04/15 00:10:27;;;;;;;;;;;;;;;5.33;nan;99589.44;5026482;28;19929;-81
2023/04/15 00:12:52;;;;;;;;;;;;;;;5.32;nan;99596.47;5034501;28;19913;-82
2023/04/15 00:15:18;;;;;;;;;;;;;;;5.29;nan;99593.28;5035789;28;20500;-83
2023/04/15 00:17:43;;;;;;;;;;;;;;;5.22;nan;99589.56;5032810;28;19912;-82
2023/04/15 00:20:09;;;;;;;;;;;;;;;5.15;nan;99588.47;5034825;28;20008;-82
2023/04/15 00:22:35;;;;;;;;;;;;;;;5.11;nan;99587.94;5020743;28;19917;-82
2023/04/15 00:25:00;;;;;;;;;;;;;;;5.10;nan;99591.53;5028450;28;19929;-82
2023/04/15 00:27:25;;;;;;;;;;;;;;;5.14;nan;99579.81;5023494;28;20401;-81
2023/04/15 00:29:51;;;;;;;;;;;;;;;5.24;nan;99588.50;5034061;28;19913;-83
2023/04/15 00:32:16;;;;;;;;;;;;;;;5.26;nan;99588.34;5032871;28;19968;-81
2023/04/15 00:34:41;;;;;;;;;;;;;;;5.19;nan;99582.81;5033229;28;20385;-81
2023/04/15 00:37:07;;;;;;;;;;;;;;;5.13;nan;99587.81;5032400;28;19927;-83
2023/04/15 00:39:33;;;;;;;;;;;;;;;5.12;nan;99581.72;5034273;28;19921;-83
2023/04/15 00:41:58;;;;;;;;;;;;;;;5.14;nan;99577.19;5032358;28;19917;-83
2023/04/15 00:44:23;;;;;;;;;;;;;;;5.19;nan;99576.75;5037645;28;20024;-82
2023/04/15 00:46:50;;;;;;;;;;;;;;;5.21;nan;99573.03;5031725;28;19951;-82
2023/04/15 00:49:17;;;;;;;;;;;;;;;5.29;nan;99569.69;5038494;28;19913;-82
2023/04/15 00:51:42;;;;;;;;;;;;;;;5.35;nan;99578.81;5034546;28;20298;-82
2023/04/15 00:54:07;;;;;;;;;;;;;;;5.31;nan;99576.47;5033387;28;19928;-82
2023/04/15 00:56:36;;;;;;;;;;;;;;;5.24;nan;99572.78;5031582;28;19918;-82
2023/04/15 00:59:02;;;;;;;;;;;;;;;5.17;nan;99574.28;5031920;28;19913;-83
2023/04/15 01:01:28;;;;;;;;;;;;;;;5.14;nan;99577.19;5029501;28;19917;-81
2023/04/15 01:03:55;;;;;;;;;;;;;;;5.12;nan;99576.50;5029156;28;19931;-82
2023/04/15 01:06:20;;;;;;;;;;;;;;;5.13;nan;99569.47;5030888;28;20453;-81
2023/04/15 01:08:45;;;;;;;;;;;;;;;5.15;nan;99573.59;5032491;28;19956;-82
2023/04/15 01:11:11;;;;;;;;;;;;;;;5.17;nan;99576.88;5034011;28;19917;-82
2023/04/15 01:13:37;;;;;;;;;;;;;;;5.17;nan;99571.66;5024556;28;19940;-82
2023/04/15 01:16:02;;;;;;;;;;;;;;;5.17;nan;99576.88;5028833;28;20539;-81
2023/04/15 01:18:28;;;;;;;;;;;;;;;5.17;nan;99569.03;5031176;28;19924;-81
2023/04/15 01:20:53;;;;;;;;;;;;;;;5.19;nan;99569.72;5028205;28;19993;-81
2023/04/15 01:23:19;;;;;;;;;;;;;;;5.23;nan;99570.28;5028328;28;19940;-82
2023/04/15 01:25:44;;;;;;;;;;;;;;;5.24;nan;99572.78;5033801;28;19920;-82
2023/04/15 01:28:09;;;;;;;;;;;;;;;5.22;nan;99572.09;5033121;28;19936;-81
2023/04/15 01:30:35;;;;;;;;;;;;;;;5.23;nan;99571.09;5020682;28;20382;-82
2023/04/15 01:33:00;;;;;;;;;;;;;;;5.19;nan;99572.34;5028571;28;19952;-82
2023/04/15 01:35:26;;;;;;;;;;;;;;;5.17;nan;99571.66;5028917;28;20014;-82
2023/04/15 01:37:51;;;;;;;;;;;;;;;5.16;nan;99577.06;5028718;28;19918;-82
2023/04/15 01:40:16;;;;;;;;;;;;;;;5.16;nan;99575.25;5021342;28;20406;-81
2023/04/15 01:42:41;;;;;;;;;;;;;;;5.08;nan;99580.38;5032712;28;19924;-81
2023/04/15 01:45:07;;;;;;;;;;;;;;;4.99;nan;99575.97;5032394;28;19917;-81
2023/04/15 01:47:32;;;;;;;;;;;;;;;4.89;nan;99571.56;5033500;28;19971;-81
2023/04/15 01:49:57;;;;;;;;;;;;;;;4.77;nan;99585.75;5036522;28;19917;-81
2023/04/15 01:52:23;;;;;;;;;;;;;;;4.67;nan;99582.28;5030284;28;19992;-81
2023/04/15 01:54:48;;;;;;;;;;;;;;;4.59;nan;99579.53;5030792;28;19928;-82
2023/04/15 01:57:18;;;;;;;;;;;;;;;4.51;nan;99582.84;5032512;22;20338;-81
2023/04/15 01:59:55;;;;;;;;;;;;;;;4.44;nan;99577.31;5000685;28;19959;-82
2023/04/15 02:02:21;;;;;;;;;;;;;;;4.38;nan;99583.09;4975063;28;19920;-82
2023/04/15 02:08:09;;;;;;;;;;;;;;;4.24;nan;99576.47;5030674;28;19917;-82
2023/04/15 02:10:43;;;;;;;;;;;;;;;4.20;nan;99585.56;5013414;28;20358;-82
2023/04/15 02:13:14;;;;;;;;;;;;;;;4.12;nan;99584.56;5011785;28;19909;-82
2023/04/15 02:16:03;;;;;;;;;;;;;;;4.02;nan;99574.88;5002547;28;20012;-81
2023/04/15 02:18:31;;;;;;;;;;;;;;;3.95;nan;99578.16;5003937;28;19923;-83
2023/04/15 02:21:29;;;;;;;;;;;;;;;;;;;;;
2023/04/15 02:23:58;;;;;;;;;;;;;;;3.80;nan;99580.31;5003382;28;20023;-81
2023/04/15 02:26:36;;;;;;;;;;;;;;;;;;;;;
2023/04/15 02:29:14;;;;;;;;;;;;;;;3.68;nan;99582.19;5007737;28;19917;-81
2023/04/15 02:31:59;;;;;;;;;;;;;;;3.65;nan;99589.47;5014242;28;19947;-81
2023/04/15 02:34:42;;;;;;;;;;;;;;;3.61;nan;99589.72;4995304;28;20080;-82
2023/04/15 02:37:19;;;;;;;;;;;;;;;3.69;nan;99581.22;5016488;28;19924;-82
2023/04/15 02:40:13;;;;;;;;;;;;;;;3.79;nan;99581.25;4987187;28;19975;-82
2023/04/15 02:42:53;;;;;;;;;;;;;;;3.86;nan;99585.00;5017991;28;19925;-82
2023/04/15 02:45:40;;;;;;;;;;;;;;;3.92;nan;99589.72;5016692;28;19924;-81
2023/04/15 02:48:08;;;;;;;;;;;;;;;3.94;nan;99582.56;5022248;28;19940;-84
2023/04/15 02:50:33;;;;;;;;;;;;;;;3.93;nan;99582.69;5026607;28;19948;-81
2023/04/15 02:53:00;;;;;;;;;;;;;;;3.95;nan;99586.00;5027199;28;20003;-82
2023/04/15 02:55:25;;;;;;;;;;;;;;;4.02;nan;99585.34;5028444;28;19963;-82
2023/04/15 02:57:51;;;;;;;;;;;;;;;4.12;nan;99587.16;5028743;28;20001;-82
2023/04/15 03:00:16;;;;;;;;;;;;;;;4.19;nan;99578.66;5022797;28;19917;-82
2023/04/15 03:02:41;;;;;;;;;;;;;;;4.18;nan;99584.84;5027707;28;19913;-82
2023/04/15 03:05:10;;;;;;;;;;;;;;;4.16;nan;99588.56;5029250;28;19936;-82
2023/04/15 03:07:35;;;;;;;;;;;;;;;4.14;nan;99590.47;5028491;28;19924;-82
2023/04/15 03:10:01;;;;;;;;;;;;;;;4.16;nan;99592.00;5030368;28;19917;-82
2023/04/15 03:12:26;;;;;;;;;;;;;;;4.14;nan;99586.06;5030812;28;19975;-82
2023/04/15 03:14:51;;;;;;;;;;;;;;;4.12;nan;99590.59;5031503;28;19959;-83
2023/04/15 03:17:17;;;;;;;;;;;;;;;4.15;nan;99594.78;5034064;28;20297;-82
2023/04/15 03:19:42;;;;;;;;;;;;;;;4.25;nan;99600.84;5034764;28;19920;-83
2023/04/15 03:22:08;;;;;;;;;;;;;;;4.31;nan;99592.44;5034751;28;19933;-82
2023/04/15 03:24:33;;;;;;;;;;;;;;;4.34;nan;99588.72;5022693;28;19960;-82
2023/04/15 03:26:58;;;;;;;;;;;;;;;4.38;nan;99593.56;5039198;28;19970;-83
2023/04/15 03:29:23;;;;;;;;;;;;;;;4.36;nan;99585.03;5033497;28;19924;-83
2023/04/15 03:31:48;;;;;;;;;;;;;;;4.40;nan;99590.81;5029973;28;20450;-83
2023/04/15 03:34:14;;;;;;;;;;;;;;;4.36;nan;99586.81;5013008;28;19921;-82
2023/04/15 03:36:41;;;;;;;;;;;;;;;4.35;nan;99590.41;5018625;23;19952;-83
2023/04/15 03:39:07;;;;;;;;;;;;;;;4.34;nan;99594.81;5033801;28;19952;-83
2023/04/15 03:41:43;;;;;;;;;;;;;;;4.33;nan;99600.16;5020987;28;19983;-82
2023/04/15 03:44:40;;;;;;;;;;;;;;;4.29;nan;99596.16;5023250;28;19913;-82
2023/04/15 03:47:11;;;;;;;;;;;;;;;4.23;nan;99598.34;4995210;28;19921;-82
2023/04/15 03:49:39;;;;;;;;;;;;;;;4.18;nan;99591.88;5033083;28;19913;-82
2023/04/15 03:52:35;;;;;;;;;;;;;;;4.11;nan;99588.16;4995036;28;19924;-82
2023/04/15 03:55:01;;;;;;;;;;;;;;;4.03;nan;99589.63;5027582;28;19917;-82
2023/04/15 03:57:43;;;;;;;;;;;;;;;3.97;nan;99582.31;5020206;28;19921;-81
2023/04/15 04:00:17;;;;;;;;;;;;;;;3.93;nan;99586.16;5017926;28;19959;-82
2023/04/15 04:02:48;;;;;;;;;;;;;;;3.90;nan;99581.19;5033413;28;20294;-82
2023/04/15 04:05:35;;;;;;;;;;;;;;;3.87;nan;99576.22;5008631;28;19943;-82
2023/04/15 04:08:12;;;;;;;;;;;;;;;3.81;nan;99582.81;5014144;28;20521;-82
2023/04/15 04:10:38;;;;;;;;;;;;;;;3.74;nan;99578.22;5004154;28;20101;-82
2023/04/15 04:13:09;;;;;;;;;;;;;;;3.65;nan;99585.09;5002509;28;20070;-82
2023/04/15 04:18:31;;;;;;;;;;;;;;;3.47;nan;99590.06;5026910;28;20431;-82
2023/04/15 04:21:02;;;;;;;;;;;;;;;3.43;nan;99591.28;5016911;28;20300;-82
2023/04/15 04:23:38;;;;;;;;;;;;;;;3.39;nan;99585.50;5041633;28;20107;-82
2023/04/15 04:26:08;;;;;;;;;;;;;;;3.39;nan;99587.28;5027241;28;19917;-82
2023/04/15 04:28:39;;;;;;;;;;;;;;;3.40;nan;99591.53;5023072;28;19970;-82
2023/04/15 04:31:36;;;;;;;;;;;;;;;;;;;;;
2023/04/15 04:34:06;;;;;;;;;;;;;;;3.48;nan;99599.59;5030470;28;20007;-83
2023/04/15 04:36:49;;;;;;;;;;;;;;;3.57;nan;99596.16;5025223;28;19932;-82
2023/04/15 04:39:22;;;;;;;;;;;;;;;3.68;nan;99590.03;5035616;28;19917;-81
2023/04/15 04:41:51;;;;;;;;;;;;;;;3.79;nan;99583.88;5049870;28;20424;-81
2023/04/15 04:44:21;;;;;;;;;;;;;;;3.84;nan;99605.25;5023842;28;19917;-81
2023/04/15 04:47:00;;;;;;;;;;;;;;;3.85;nan;99604.28;5053360;28;19916;-82
2023/04/15 04:49:27;;;;;;;;;;;;;;;3.88;nan;99608.44;5018416;28;20345;-81
2023/04/15 04:51:59;;;;;;;;;;;;;;;3.88;nan;99604.00;5031429;28;19929;-82
2023/04/15 04:54:36;;;;;;;;;;;;;;;3.86;nan;99597.25;4983473;28;19925;-82
2023/04/15 04:57:04;;;;;;;;;;;;;;;3.83;nan;99607.03;4994460;28;20614;-81
2023/04/15 04:59:29;;;;;;;;;;;;;;;3.81;nan;99611.59;5030910;28;19917;-82
2023/04/15 05:01:54;;;;;;;;;;;;;;;3.81;nan;99606.34;5031708;28;19920;-81
2023/04/15 05:04:19;;;;;;;;;;;;;;;3.83;nan;99608.81;5027947;28;19932;-82
2023/04/15 05:06:45;;;;;;;;;;;;;;;3.86;nan;99616.38;5028632;28;20402;-82
2023/04/15 05:09:10;;;;;;;;;;;;;;;3.91;nan;99619.47;5023423;28;19917;-81
2023/04/15 05:11:35;;;;;;;;;;;;;;;3.96;nan;99616.47;5032908;28;19925;-82
2023/04/15 05:14:01;;;;;;;;;;;;;;;4.00;nan;99618.69;5032040;28;20724;-82
2023/04/15 05:16:26;;;;;;;;;;;;;;;4.03;nan;99617.59;5012248;28;20302;-82
2023/04/15 05:18:51;;;;;;;;;;;;;;;4.04;nan;99630.50;5012654;28;19933;-82
2023/04/15 05:21:16;;;;;;;;;;;;;;;4.07;nan;99626.81;5012717;28;19914;-83
2023/04/15 05:23:42;;;;;;;;;;;;;;;4.11;nan;99627.38;5015723;28;20340;-80
2023/04/15 05:26:07;;;;;;;;;;;;;;;4.13;nan;99626.28;5018193;28;19966;-82
2023/04/15 05:28:32;;;;;;;;;;;;;;;4.16;nan;99628.63;5031645;28;19982;-81
2023/04/15 05:30:57;;;;;;;;;;;;;;;4.19;nan;99633.59;5031939;28;19917;-82
2023/04/15 05:33:22;;;;;;;;;;;;;;;4.22;nan;99628.13;5021069;28;19913;-81
2023/04/15 05:35:48;;;;;;;;;;;;;;;4.29;nan;99622.31;5011229;28;19943;-81
2023/04/15 05:38:13;;;;;;;;;;;;;;;4.34;nan;99622.75;5030440;28;19917;-82
2023/04/15 05:40:38;;;;;;;;;;;;;;;4.44;nan;99627.06;5012305;28;19956;-82
2023/04/15 05:43:03;;;;;;;;;;;;;;;4.50;nan;99619.63;5015801;28;20442;-81
2023/04/15 05:45:28;;;;;;;;;;;;;;;4.57;nan;99613.72;5016144;28;19928;-81
2023/04/15 05:47:54;;;;;;;;;;;;;;;4.72;nan;99623.78;5053523;28;20535;-81
2023/04/15 05:50:20;;;;;;;;;;;;;;;4.97;nan;99631.13;5040780;28;19944;-80
2023/04/15 05:52:45;;;;;;;;;;;;;;;5.28;nan;99629.16;5030963;28;19967;-80
2023/04/15 05:55:10;;;;;;;;;;;;;;;5.53;nan;99632.19;5051566;28;19988;-81
2023/04/15 05:57:36;;;;;;;;;;;;;;;5.82;nan;99644.41;5051925;28;19931;-80
2023/04/15 06:00:02;;;;;;;;;;;;;;;6.12;nan;99640.69;5048612;28;19920;-81
2023/04/15 06:02:27;;;;;;;;;;;;;;;6.37;nan;99649.72;5028795;28;19913;-81
2023/04/15 06:04:52;;;;;;;;;;;;;;;6.63;nan;99646.41;5041507;28;19977;-81
2023/04/15 06:07:17;;;;;;;;;;;;;;;;;;5041193;28;19992;-81
2023/04/15 06:09:43;;;;;;;;;;;;;;;7.23;nan;99641.38;5042334;28;19941;-81
2023/04/15 06:12:11;;;;;;;;;;;;;;;7.34;nan;99642.91;5043188;28;20366;-81
2023/04/15 06:14:36;;;;;;;;;;;;;;;7.40;nan;99644.94;5038525;28;19932;-80
2023/04/15 06:17:01;;;;;;;;;;;;;;;7.35;nan;99644.59;5056249;28;19913;-81
2023/04/15 06:19:27;;;;;;;;;;;;;;;7.36;nan;99647.03;5040203;28;19924;-82
2023/04/15 06:21:52;;;;;;;;;;;;;;;7.48;nan;99652.06;5022575;28;19913;-80
2023/04/15 06:24:17;;;;;;;;;;;;;;;7.63;nan;99658.44;5039250;28;19922;-81
2023/04/15 06:26:42;;;;;;;;;;;;;;;7.84;nan;99658.06;5041545;28;19980;-81
2023/04/15 06:29:08;;;;;;;;;;;;;;;8.08;nan;99660.03;5039784;28;20039;-81
2023/04/15 06:31:33;;;;;;;;;;;;;;;8.37;nan;99659.66;5039232;28;19913;-81
2023/04/15 06:33:58;;;;;;;;;;;;;;;8.61;nan;99660.75;5034269;28;19936;-80
2023/04/15 06:36:23;;;;;;;;;;;;;;;8.84;nan;99659.19;5026228;28;19918;-82
2023/04/15 06:38:48;;;;;;;;;;;;;;;9.01;nan;99662.66;5024731;28;20196;-82
2023/04/15 06:41:13;;;;;;;;;;;;;;;9.11;nan;99665.97;5029363;28;19917;-81
2023/04/15 06:43:39;;;;;;;;;;;;;;;9.14;nan;99675.34;5016368;28;19917;-81
2023/04/15 06:46:04;;;;;;;;;;;;;;;9.28;nan;99674.72;5045307;28;19917;-81
2023/04/15 06:48:29;;;;;;;;;;;;;;;9.64;nan;99673.53;5023149;28;19917;-81
2023/04/15 06:50:55;;;;;;;;;;;;;;;10.09;nan;99661.56;5042245;28;20406;-81
2023/04/15 06:53:20;;;;;;;;;;;;;;;10.44;nan;99667.41;5030251;28;19932;-82
2023/04/15 06:55:46;;;;;;;;;;;;;;;10.62;nan;99655.59;5028843;28;19922;-81
2023/04/15 06:58:11;;;;;;;;;;;;;;;10.74;nan;99663.13;5029933;28;19948;-82
2023/04/15 07:00:38;;;;;;;;;;;;;;;10.67;nan;99664.81;5042439;28;19921;-82
2023/04/15 07:03:03;;;;;;;;;;;;;;;10.53;nan;99661.09;5024355;28;19916;-82
2023/04/15 07:05:29;;;;;;;;;;;;;;;10.47;nan;99659.16;5022548;28;20072;-81
2023/04/15 07:07:55;;;;;;;;;;;;;;;10.52;nan;99664.75;5041372;28;19959;-82
2023/04/15 07:10:20;;;;;;;;;;;;;;;10.39;nan;99660.84;5036328;28;19921;-81
2023/04/15 07:12:46;;;;;;;;;;;;;;;10.47;nan;99657.31;5040945;28;19917;-82
2023/04/15 07:15:11;;;;;;;;;;;;;;;10.69;nan;99657.56;5040239;28;19921;-82
2023/04/15 07:17:37;;;;;;;;;;;;;;;11.17;nan;99660.88;5041873;28;20371;-81
2023/04/15 07:20:03;;;;;;;;;;;;;;;11.57;nan;99659.72;5033139;28;19917;-81
2023/04/15 07:22:29;;;;;;;;;;;;;;;11.72;nan;99658.91;5047160;28;19901;-81
2023/04/15 07:24:54;;;;;;;;;;;;;;;11.75;nan;99661.19;5050119;28;19924;-82
2023/04/15 07:27:19;;;;;;;;;;;;;;;11.39;nan;99660.06;5040833;28;19924;-82
2023/04/15 07:29:44;;;;;;;;;;;;;;;10.94;nan;99650.28;5040553;28;20310;-82
2023/04/15 07:32:10;;;;;;;;;;;;;;;10.79;nan;99655.50;5039610;28;19913;-82
2023/04/15 07:34:36;;;;;;;;;;;;;;;10.64;nan;99660.72;5039264;28;19956;-81
2023/04/15 07:37:02;;;;;;;;;;;;;;;10.55;nan;99662.56;5021862;28;19917;-82
2023/04/15 07:39:28;;;;;;;;;;;;;;;10.21;nan;99668.13;5022086;28;19913;-83
2023/04/15 07:41:53;;;;;;;;;;;;;;;10.18;nan;99657.91;5035594;28;19920;-82
2023/04/15 07:44:18;;;;;;;;;;;;;;;10.45;nan;99669.06;5035227;28;19913;-82
2023/04/15 07:46:43;;;;;;;;;;;;;;;10.55;nan;99659.91;5035055;28;19924;-81
2023/04/15 07:49:08;;;;;;;;;;;;;;;10.59;nan;99663.06;5034604;28;20405;-82
2023/04/15 07:51:34;;;;;;;;;;;;;;;10.91;nan;99663.84;5035176;28;19923;-80
2023/04/15 07:53:59;;;;;;;;;;;;;;;11.04;nan;99666.75;5018924;28;20596;-81
2023/04/15 07:56:25;;;;;;;;;;;;;;;11.23;nan;99679.50;5016585;28;19921;-81
2023/04/15 07:58:50;;;;;;;;;;;;;;;11.35;nan;99676.47;5037667;28;19923;-81
2023/04/15 08:01:15;;;;;;;;;;;;;;;11.30;nan;99669.06;5035252;28;20003;-82
2023/04/15 08:03:41;;;;;;;;;;;;;;;11.16;nan;99665.34;5033204;28;19921;-81
2023/04/15 08:06:07;;;;;;;;;;;;;;;11.42;nan;99672.91;5030757;28;19976;-82
2023/04/15 08:08:32;;;;;;;;;;;;;;;11.75;nan;99679.72;5035002;28;19923;-82
2023/04/15 08:10:57;;;;;;;;;;;;;;;12.23;nan;99672.34;5026160;28;20378;-82
2023/04/15 08:13:22;;;;;;;;;;;;;;;12.75;nan;99674.81;5035502;28;19928;-82
2023/04/15 08:16:07;;;;;;;;;;;;;;;12.64;nan;99674.47;5018048;28;19917;-82
2023/04/15 08:18:33;;;;;;;;;;;;;;;12.94;nan;99668.09;5033937;28;19917;-82
2023/04/15 08:20:58;;;;;;;;;;;;;;;13.29;nan;99676.19;5035805;28;19994;-82
2023/04/15 08:23:23;;;;;;;;;;;;;;;13.86;nan;99671.75;5042859;28;19925;-81
2023/04/15 08:25:48;;;;;;;;;;;;;;;14.23;nan;99678.53;5034778;28;20389;-81
2023/04/15 08:28:13;;;;;;;;;;;;;;;14.32;nan;99676.50;5014860;28;19923;-82
2023/04/15 08:30:39;;;;;;;;;;;;;;;14.28;nan;99675.28;5035393;28;19963;-81
2023/04/15 08:33:04;;;;;;;;;;;;;;;14.70;nan;99676.09;5034996;28;20252;-82
2023/04/15 08:35:30;;;;;;;;;;;;;;;15.02;nan;99665.75;5033860;28;19939;-82
2023/04/15 08:37:55;;;;;;;;;;;;;;;15.56;nan;99672.75;5034684;28;19913;-82
2023/04/15 08:40:21;;;;;;;;;;;;;;;16.23;nan;99672.69;5025590;28;19913;-82
2023/04/15 08:42:50;;;;;;;;;;;;;;;16.90;nan;99682.09;5036096;28;19917;-82
2023/04/15 08:45:17;;;;;;;;;;;;;;;17.25;nan;99683.53;5027874;28;20021;-82
2023/04/15 08:47:44;;;;;;;;;;;;;;;17.28;nan;99691.94;5017992;28;19917;-81
2023/04/15 08:50:10;;;;;;;;;;;;;;;17.89;nan;99687.78;5032328;28;20413;-83
2023/04/15 08:52:35;;;;;;;;;;;;;;;18.07;nan;99688.81;5032700;28;19913;-81
2023/04/15 08:55:01;;;;;;;;;;;;;;;17.45;nan;99686.06;5033271;28;20024;-82
2023/04/15 08:57:30;;;;;;;;;;;;;;;17.50;nan;99684.38;5033139;28;19920;-81
2023/04/15 08:59:56;;;;;;;;;;;;;;;18.03;nan;99686.59;5031658;28;19932;-82
2023/04/15 09:02:22;;;;;;;;;;;;;;;18.63;nan;99679.75;5032651;28;20007;-82
2023/04/15 09:04:47;;;;;;;;;;;;;;;18.75;nan;99680.63;5032462;28;19917;-82
2023/04/15 09:07:12;;;;;;;;;;;;;;;17.95;nan;99686.91;5030640;28;19917;-82
2023/04/15 09:09:39;;;;;;;;;;;;;;;17.13;nan;99684.22;5033726;28;20080;-81
2023/04/15 09:12:04;;;;;;;;;;;;;;;17.47;nan;99679.47;5025611;28;19921;-82
2023/04/15 09:14:31;;;;;;;;;;;;;;;17.47;nan;99683.97;5014447;28;20000;-83
2023/04/15 09:17:00;;;;;;;;;;;;;;;17.76;nan;99683.34;5020724;28;20051;-82
2023/04/15 09:19:26;;;;;;;;;;;;;;;18.16;nan;99687.50;5038445;28;19917;-82
2023/04/15 09:21:57;;;;;;;;;;;;;;;18.64;nan;99694.81;5032929;28;19928;-82
2023/04/15 09:24:23;;;;;;;;;;;;;;;18.84;nan;99689.22;5032242;28;19939;-82
2023/04/15 09:26:51;;;;;;;;;;;;;;;19.10;nan;99688.84;5025482;28;20359;-82
2023/04/15 09:29:17;;;;;;;;;;;;;;;19.50;nan;99687.44;5032048;28;19913;-82
2023/04/15 09:31:42;;;;;;;;;;;;;;;19.26;nan;99692.75;5024648;28;19945;-82
2023/04/15 09:34:07;;;;;;;;;;;;;;;18.95;nan;99690.28;5028807;28;19986;-82
2023/04/15 09:36:45;;;;;;;;;;;;;;;18.90;nan;99699.00;5023378;28;20407;-82
2023/04/15 09:39:10;;;;;;;;;;;;;;;19.22;nan;99696.09;5021017;28;20286;-81
2023/04/15 09:41:35;;;;;;;;;;;;;;;19.36;nan;99699.41;5024914;28;19929;-82
2023/04/15 09:44:00;;;;;;;;;;;;;;;19.69;nan;99704.28;5030117;28;20333;-82
2023/04/15 09:46:42;;;;;;;;;;;;;;;19.67;nan;99701.78;5027965;28;19917;-82
2023/04/15 09:49:08;;;;;;;;;;;;;;;20.58;nan;99704.94;5036589;28;19913;-82
2023/04/15 09:51:34;;;;;;;;;;;;;;;21.04;nan;99701.50;5036875;28;20353;-83
2023/04/15 09:53:59;;;;;;;;;;;;;;;20.89;nan;99697.47;5031537;28;19917;-83
2023/04/15 09:56:30;;;;;;;;;;;;;;;20.44;nan;99700.03;5026284;28;19978;-83
2023/04/15 09:58:56;;;;;;;;;;;;;;;19.92;nan;99708.81;5019871;28;19985;-83
2023/04/15 10:01:21;;;;;;;;;;;;;;;18.65;nan;99707.13;5032520;28;19917;-82
2023/04/15 10:03:47;;;;;;;;;;;;;;;17.85;nan;99713.31;5033800;28;20371;-82
2023/04/15 10:06:13;;;;;;;;;;;;;;;17.26;nan;99710.03;5024085;28;20262;-82
2023/04/15 10:08:40;;;;;;;;;;;;;;;17.03;nan;99709.78;5029458;28;19948;-82
2023/04/15 10:11:06;;;;;;;;;;;;;;;16.84;nan;99720.34;5030639;28;20015;-82
2023/04/15 10:13:33;;;;;;;;;;;;;;;17.02;nan;99722.31;5031389;28;19947;-82
2023/04/15 10:16:06;;;;;;;;;;;;;;;17.72;nan;99718.75;5031123;28;19921;-83
2023/04/15 10:18:33;;;;;;;;;;;;;;;18.31;nan;99724.63;5030336;28;19921;-82
2023/04/15 10:21:00;;;;;;;;;;;;;;;17.90;nan;99726.03;5021919;28;19917;-82
2023/04/15 10:23:26;;;;;;;;;;;;;;;18.02;nan;99724.28;5019854;28;20388;-81
2023/04/15 10:25:53;;;;;;;;;;;;;;;17.77;nan;99726.94;5032239;28;19916;-81
2023/04/15 10:28:18;;;;;;;;;;;;;;;17.22;nan;99732.06;5024262;28;19947;-82
2023/04/15 10:30:45;;;;;;;;;;;;;;;17.03;nan;99734.63;5026570;28;19921;-82
2023/04/15 10:33:10;;;;;;;;;;;;;;;16.97;nan;99730.13;5029034;28;20356;-83
2023/04/15 10:35:36;;;;;;;;;;;;;;;16.96;nan;99733.84;5029045;28;19971;-85
2023/04/15 10:38:01;;;;;;;;;;;;;;;16.85;nan;99732.66;5020863;28;19940;-80
2023/04/15 10:40:30;;;;;;;;;;;;;;;16.20;nan;99740.63;5028813;28;19924;-83
2023/04/15 10:42:56;;;;;;;;;;;;;;;15.96;nan;99746.59;5021559;28;19940;-84
2023/04/15 10:45:24;;;;;;;;;;;;;;;16.12;nan;99748.84;5018381;28;19953;-83
2023/04/15 10:48:00;;;;;;;;;;;;;;;16.14;nan;99747.59;5039897;28;19917;-82
2023/04/15 10:50:27;;;;;;;;;;;;;;;15.91;nan;99750.69;5031142;28;20490;-83
2023/04/15 10:52:52;;;;;;;;;;;;;;;15.43;nan;99752.69;5021879;28;19948;-83
2023/04/15 10:55:20;;;;;;;;;;;;;;;15.62;nan;99749.22;5033271;28;19921;-83
2023/04/15 10:57:45;;;;;;;;;;;;;;;15.70;nan;99751.72;5027343;28;20375;-83
2023/04/15 11:00:15;;;;;;;;;;;;;;;15.63;nan;99760.69;5032704;28;19923;-83
2023/04/15 11:02:46;;;;;;;;;;;;;;;15.49;nan;99760.69;5032871;28;19963;-83
2023/04/15 11:05:12;;;;;;;;;;;;;;;15.78;nan;99764.03;5036232;28;19935;-83
2023/04/15 11:07:37;;;;;;;;;;;;;;;15.86;nan;99761.16;5031702;28;19952;-82
2023/04/15 11:10:24;;;;;;;;;;;;;;;15.77;nan;99761.56;5042797;28;19913;-83
2023/04/15 11:12:55;;;;;;;;;;;;;;;15.74;nan;99761.97;5033251;28;19970;-83
2023/04/15 11:15:33;;;;;;;;;;;;;;;15.41;nan;99765.38;5035027;28;19917;-83
2023/04/15 11:18:10;;;;;;;;;;;;;;;15.23;nan;99768.59;5033742;28;20003;-84
2023/04/15 11:20:35;;;;;;;;;;;;;;;14.94;nan;99770.56;5015330;28;19948;-83
2023/04/15 11:23:01;;;;;;;;;;;;;;;14.86;nan;99768.09;5018990;28;20225;-83
2023/04/15 11:25:27;;;;;;;;;;;;;;;14.92;nan;99763.78;5015902;28;19917;-84
2023/04/15 11:27:53;;;;;;;;;;;;;;;14.95;nan;99777.53;5031262;28;19917;-84
2023/04/15 11:30:20;;;;;;;;;;;;;;;15.01;nan;99776.72;5029488;28;19920;-84
2023/04/15 11:32:46;;;;;;;;;;;;;;;15.03;nan;99774.69;5018486;28;19917;-84
2023/04/15 11:35:11;;;;;;;;;;;;;;;15.28;nan;99777.66;5029876;28;20013;-83
2023/04/15 11:37:36;;;;;;;;;;;;;;;15.45;nan;99794.09;5032443;28;19916;-83
2023/04/15 11:40:02;;;;;;;;;;;;;;;15.46;nan;99789.56;5032449;28;19947;-84
2023/04/15 11:42:27;;;;;;;;;;;;;;;15.37;nan;99793.44;5030734;28;19951;-83
2023/04/15 11:45:05;;;;;;;;;;;;;;;15.61;nan;99794.72;5031482;28;19917;-83
2023/04/15 11:47:30;;;;;;;;;;;;;;;16.12;nan;99792.34;5034183;28;20290;-84
2023/04/15 11:49:56;;;;;;;;;;;;;;;16.79;nan;99794.09;5032540;28;19967;-84
2023/04/15 11:52:21;;;;;;;;;;;;;;;16.92;nan;99796.72;5033433;28;19920;-84
2023/04/15 11:54:46;;;;;;;;;;;;;;;17.40;nan;99797.13;5030925;28;19931;-83
2023/04/15 11:57:12;;;;;;;;;;;;;;;17.00;nan;99803.69;5032903;28;19970;-83
2023/04/15 11:59:41;;;;;;;;;;;;;;;17.33;nan;99808.88;5016007;28;19924;-84
2023/04/15 12:02:13;;;;;;;;;;;;;;;17.31;nan;99805.59;5033696;28;19924;-84
2023/04/15 12:04:38;;;;;;;;;;;;;;;16.88;nan;99807.00;5029659;28;20015;-84
2023/04/15 12:07:03;;;;;;;;;;;;;;;17.12;nan;99804.66;5045658;28;19947;-84
2023/04/15 12:09:29;;;;;;;;;;;;;;;17.33;nan;99808.88;5034422;28;19917;-83
2023/04/15 12:11:57;;;;;;;;;;;;;;;17.44;nan;99800.16;5028861;28;19912;-83
2023/04/15 12:14:27;;;;;;;;;;;;;;;17.22;nan;99804.19;5032034;28;20633;-84
2023/04/15 12:16:53;;;;;;;;;;;;;;;16.81;nan;99802.72;5029777;28;19974;-84
2023/04/15 12:19:34;;;;;;;;;;;;;;;16.11;nan;99803.19;5019339;28;20422;-84
2023/04/15 12:22:08;;;;;;;;;;;;;;;16.21;nan;99800.97;5039388;28;19932;-84
2023/04/15 12:24:34;;;;;;;;;;;;;;;15.97;nan;99801.56;5036523;28;19996;-84
2023/04/15 12:27:07;;;;;;;;;;;;;;;15.64;nan;99813.81;5033144;28;20000;-85
2023/04/15 12:29:33;;;;;;;;;;;;;;;15.20;nan;99820.44;5032928;28;19913;-83
2023/04/15 12:32:14;;;;;;;;;;;;;;;15.10;nan;99817.31;5010562;28;19917;-83
2023/04/15 12:34:39;;;;;;;;;;;;;;;14.99;nan;99820.56;5024033;28;19927;-83
2023/04/15 12:37:06;;;;;;;;;;;;;;;14.97;nan;99810.13;5030994;28;19917;-82
2023/04/15 12:39:34;;;;;;;;;;;;;;;14.84;nan;99823.34;5027857;28;19918;-83
2023/04/15 12:42:00;;;;;;;;;;;;;;;14.67;nan;99827.34;5030974;28;19913;-83
2023/04/15 12:44:26;;;;;;;;;;;;;;;14.79;nan;99839.09;5010209;28;19920;-82
2023/04/15 12:46:54;;;;;;;;;;;;;;;14.70;nan;99833.09;5019708;28;19928;-82
2023/04/15 12:49:20;;;;;;;;;;;;;;;14.75;nan;99835.16;5013343;28;20003;-83
2023/04/15 12:51:47;;;;;;;;;;;;;;;15.01;nan;99832.63;5026187;28;20377;-83
2023/04/15 12:54:13;;;;;;;;;;;;;;;15.16;nan;99829.88;5032733;28;20302;-83
2023/04/15 12:56:38;;;;;;;;;;;;;;;15.06;nan;99835.56;5035823;28;19941;-83
2023/04/15 12:59:03;;;;;;;;;;;;;;;15.12;nan;99833.13;5034231;28;20307;-83
2023/04/15 13:01:28;;;;;;;;;;;;;;;15.11;nan;99840.28;5033996;28;19944;-83
2023/04/15 13:03:54;;;;;;;;;;;;;;;15.06;nan;99845.38;5021646;28;19966;-83
2023/04/15 13:06:20;;;;;;;;;;;;;;;15.18;nan;99840.28;5028909;28;19917;-83
2023/04/15 13:08:45;;;;;;;;;;;;;;;15.19;nan;99848.09;5044309;28;19940;-84
2023/04/15 13:11:10;;;;;;;;;;;;;;;14.94;nan;99850.44;5022165;28;19920;-83
2023/04/15 13:13:36;;;;;;;;;;;;;;;14.68;nan;99856.41;5031577;28;19917;-84
2023/04/15 13:16:01;;;;;;;;;;;;;;;14.49;nan;99851.75;5016127;28;20290;-83
2023/04/15 13:18:26;;;;;;;;;;;;;;;14.37;nan;99854.13;5029192;28;20176;-83
2023/04/15 13:20:52;;;;;;;;;;;;;;;14.05;nan;99860.81;5032180;28;19952;-82
2023/04/15 13:23:18;;;;;;;;;;;;;;;14.06;nan;99862.44;5013826;28;19917;-83
2023/04/15 13:25:43;;;;;;;;;;;;;;;13.93;nan;99871.94;5031071;28;19919;-84